Jiamusi Airport


Codes: ZYJM/JMU
Name: Jiamusi Airport
City: Jiamusi
Country: China
Elevation: 262 ft.
Wikipedia:

Photos at Jiamusi Airport


   Photos courtesy of SpottingLog. You can add your own sightings and photos by signing up for a free trial today.



No photos found.

Weather at Jiamusi Airport


Time (UTC)DescriptionTempratureWindCloud coverageVisibilityPressureHumidity
15-Apr-2024 18:00Overcast Clouds17°C13 mph, S100%10000m1002hPa49%
15-Apr-2024 21:00Light Rain15°C11 mph, SW100%10000m1001hPa68%
16-Apr-2024 00:00Light Rain14°C9 mph, S100%10000m1002hPa76%
16-Apr-2024 03:00Light Rain17°C13 mph, SW100%10000m1001hPa62%
16-Apr-2024 06:00Light Rain16°C11 mph, NW98%10000m1001hPa65%
16-Apr-2024 09:00Light Rain11°C13 mph, N100%10000m1004hPa78%
16-Apr-2024 12:00Light Rain9°C9 mph, NW100%10000m1007hPa83%
16-Apr-2024 15:00Light Rain9°C7 mph, W99%10000m1008hPa75%
16-Apr-2024 18:00Broken Clouds7°C7 mph, W71%10000m1009hPa77%
16-Apr-2024 21:00Clear Sky7°C7 mph, W0%10000m1009hPa76%
17-Apr-2024 00:00Clear Sky13°C9 mph, NW0%10000m1010hPa44%
17-Apr-2024 03:00Clear Sky16°C11 mph, NW0%10000m1009hPa29%
17-Apr-2024 06:00Clear Sky19°C9 mph, NW0%10000m1007hPa21%
17-Apr-2024 09:00Clear Sky19°C4 mph, N0%10000m1007hPa24%
17-Apr-2024 12:00Clear Sky14°C4 mph, E0%10000m1007hPa34%
17-Apr-2024 15:00Few Clouds11°C4 mph, SE17%10000m1007hPa49%
17-Apr-2024 18:00Scattered Clouds10°C2 mph, SE42%10000m1006hPa52%
17-Apr-2024 21:00Overcast Clouds9°C2 mph, E85%10000m1006hPa56%
18-Apr-2024 00:00Broken Clouds13°C7 mph, NE81%10000m1006hPa47%
18-Apr-2024 03:00Overcast Clouds17°C7 mph, SW100%10000m1005hPa37%
18-Apr-2024 06:00Overcast Clouds17°C18 mph, NW100%10000m1005hPa45%
18-Apr-2024 09:00Broken Clouds14°C13 mph, NW78%10000m1007hPa48%
18-Apr-2024 12:00Overcast Clouds10°C4 mph, NE90%10000m1010hPa60%
18-Apr-2024 15:00Broken Clouds8°C4 mph, NE53%10000m1011hPa79%
18-Apr-2024 18:00Broken Clouds7°C4 mph, E70%10000m1012hPa77%
18-Apr-2024 21:00Broken Clouds6°C2 mph, SE69%10000m1011hPa78%
19-Apr-2024 00:00Broken Clouds11°C4 mph, SE57%10000m1011hPa44%
19-Apr-2024 03:00Overcast Clouds14°C9 mph, SW100%10000m1010hPa21%
19-Apr-2024 06:00Overcast Clouds12°C11 mph, W96%10000m1009hPa33%
19-Apr-2024 09:00Overcast Clouds13°C11 mph, NW100%10000m1009hPa23%
19-Apr-2024 12:00Light Rain7°C7 mph, N90%10000m1011hPa71%
19-Apr-2024 15:00Few Clouds6°C4 mph, N18%10000m1012hPa77%
19-Apr-2024 18:00Light Rain4°C2 mph, N33%10000m1011hPa88%
19-Apr-2024 21:00Light Rain5°C7 mph, NW100%10000m1012hPa84%
20-Apr-2024 00:00Overcast Clouds8°C9 mph, N100%10000m1012hPa56%
20-Apr-2024 03:00Light Rain9°C11 mph, NW97%10000m1013hPa53%
20-Apr-2024 06:00Overcast Clouds12°C4 mph, NW89%10000m1011hPa41%
20-Apr-2024 09:00Light Rain11°C4 mph, NW100%10000m1012hPa49%
20-Apr-2024 12:00Light Rain8°C9 mph, N100%10000m1013hPa57%
20-Apr-2024 15:00Overcast Clouds6°C2 mph, N99%10000m1014hPa68%